Airfield :
LOGIN :

Register | Disclaimer

   EN    FR    IT 

 










Legend :    VFR   Marginal VFR   IFR   Intensive IFR   Very Intensive IFR
Visi :
Ceiling :
>= 8 km
>= 3000ft
5 to 8 km
1000 to 3000 ft
1500m to 5 km
500 to 1000 ft
800 to 1500m
200 to 500 ft
< 800m
< 200 ft
Symbols :   Thunderstorms  Fog  Heavy snow  Heavy precipitations  Wind > 20 kt
SIGMETs :     Misc.  Thunderstorms  Icing  Turbulence  Mountain Waves  Volcanic Ashes






- Airport Elevation : 1455 ft


ETIH - Hohenfels Army Air Field

CURRENT METAR :
  • 210135Z AUTO 00000KT 6000 BR SCT009 BKN019 04/03 A2985 RMK AO2 RAE12 CIG 008V019 SLP125 $

EXPIRED METARs :
  • 210112Z AUTO 00000KT 6000 BR OVC009 04/03 A2986 RMK AO2 RAE12 SLP129 $
  • 210105Z AUTO 00000KT 6000 -RA BR OVC009 04/03 A2986 RMK AO2 SLP129 $
  • 210036Z AUTO 00000KT 9000 -RA BR OVC010 04/03 A2986 RMK AO2 RAB36 SLP129 $
  • 210013Z AUTO 00000KT 9999 BKN009 OVC013 04/03 A2987 RMK AO2 CIG 009V011 SLP132 $
  • 202256Z AUTO 00000KT 9999 OVC012 04/03 A2988 RMK AO2 SLP135 T00430026 400530021 $

Expired Forecast.



MET'MAP, your aeronautical weather chart ! - Copyright ORBIFLY December 2007 - Disclaimer

ORBIFLY MET'MAP TEAM :

Programming & Development : Alexandra Zaïnal
Concept & Development : Baudouin d'Aumeries
Co-Development & Prog : Marc-Olivier Méhu
Technical & hardware support : Manuel Goepfert

Contact : metmap@orbifly.com




SOURCES & CREDITS :

   NOAA